createdAt,value
2018-06-08T00:04:25.897Z,83.20
2018-06-08T00:09:30.514Z,82.50
2018-06-08T00:12:03.698Z,82.40
2018-06-08T00:14:36.781Z,82.30
2018-06-08T00:17:10.007Z,82.20
2018-06-08T00:19:43.088Z,81.80
2018-06-08T00:22:16.096Z,81.60
2018-06-08T00:24:49.223Z,81.80
2018-06-08T00:27:22.236Z,81.70
2018-06-08T00:29:55.308Z,81.30
2018-06-08T00:32:28.400Z,81.00
2018-06-08T00:35:02.422Z,80.60
2018-06-08T00:37:35.693Z,80.00
2018-06-08T00:40:08.811Z,79.30
2018-06-08T00:42:41.880Z,78.40
2018-06-08T00:45:15.099Z,77.20
2018-06-08T00:47:48.221Z,76.40
2018-06-08T00:50:21.277Z,75.70
2018-06-08T00:52:54.360Z,74.70
2018-06-08T00:55:27.579Z,74.00
2018-06-08T00:58:00.686Z,73.70
2018-06-08T01:00:33.851Z,73.50
2018-06-08T01:03:06.948Z,73.00
2018-06-08T01:05:40.029Z,72.20
2018-06-08T01:08:13.125Z,72.10
2018-06-08T01:10:46.225Z,72.30
2018-06-08T01:13:19.314Z,72.30
2018-06-08T01:15:52.381Z,71.90
2018-06-08T01:18:25.516Z,71.50
2018-06-08T01:20:58.599Z,70.80
2018-06-08T01:23:31.684Z,70.50
2018-06-08T01:26:04.724Z,70.10
2018-06-08T01:28:37.778Z,70.00
2018-06-08T01:31:10.819Z,69.30
2018-06-08T01:36:15.503Z,68.50
2018-06-08T01:38:48.542Z,67.20
2018-06-08T01:41:21.600Z,67.00
2018-06-08T01:43:54.795Z,66.70
2018-06-08T01:46:27.928Z,66.20
2018-06-08T01:49:02.036Z,65.50
2018-06-08T01:54:06.917Z,64.80
2018-06-08T01:56:40.002Z,64.60
2018-06-08T01:59:13.235Z,65.00
2018-06-08T02:01:46.361Z,65.50
2018-06-08T02:06:51.064Z,65.60
2018-06-08T02:09:24.188Z,65.40
2018-06-08T02:11:57.286Z,65.60
2018-06-08T02:14:30.389Z,65.00
2018-06-08T02:17:03.673Z,64.10
2018-06-08T02:19:38.636Z,62.40
2018-06-08T02:22:11.700Z,61.90
2018-06-08T02:24:44.836Z,61.50
2018-06-08T02:27:18.098Z,61.10
2018-06-08T02:29:51.161Z,60.50
2018-06-08T02:32:24.256Z,59.80
2018-06-08T02:34:57.371Z,60.70
2018-06-08T02:37:31.357Z,61.40
2018-06-08T02:40:04.390Z,61.60
2018-06-08T02:42:37.450Z,62.80
2018-06-08T02:45:12.761Z,64.00
2018-06-08T02:50:17.428Z,65.00
2018-06-08T02:52:50.729Z,65.80
2018-06-08T02:55:24.050Z,66.10
2018-06-08T02:57:57.292Z,66.50
2018-06-08T03:00:30.456Z,66.60
2018-06-08T03:03:03.603Z,65.90
2018-06-08T03:05:36.846Z,66.30
2018-06-08T03:08:09.982Z,67.20
2018-06-08T03:10:43.095Z,67.40
2018-06-08T03:13:17.087Z,68.20
2018-06-08T03:15:50.506Z,69.40
2018-06-08T03:18:23.871Z,67.70
2018-06-08T03:20:57.109Z,68.20
2018-06-08T03:23:30.200Z,70.40
2018-06-08T03:26:03.311Z,72.00
2018-06-08T03:28:36.386Z,73.10
2018-06-08T03:31:09.419Z,72.00
2018-06-08T03:33:42.555Z,73.30
2018-06-08T03:36:16.695Z,75.00
2018-06-08T03:38:50.958Z,75.10
2018-06-08T03:41:25.411Z,75.90
2018-06-08T03:46:37.140Z,78.00
2018-06-08T03:49:21.275Z,78.30
2018-06-08T03:51:54.741Z,77.10
2018-06-08T03:54:27.923Z,75.60
2018-06-08T03:57:01.906Z,73.60
2018-06-08T03:59:36.400Z,72.70
2018-06-08T04:02:09.725Z,71.50
2018-06-08T04:04:42.968Z,70.90
2018-06-08T04:07:16.226Z,72.40
2018-06-08T04:09:49.587Z,73.20
2018-06-08T04:14:54.740Z,75.80
2018-06-08T04:23:02.115Z,73.80
2018-06-08T04:25:39.805Z,74.70
2018-06-08T04:28:19.906Z,77.40
2018-06-08T04:30:59.697Z,79.60
2018-06-08T04:36:26.808Z,85.20
2018-06-08T04:39:06.221Z,88.00
2018-06-08T04:41:40.639Z,90.50
2018-06-08T04:44:23.302Z,90.80
2018-06-08T04:49:59.871Z,90.90
2018-06-08T04:52:33.552Z,89.70
2018-06-08T04:55:09.146Z,87.50
2018-06-08T04:57:43.708Z,87.30
2018-06-08T05:00:21.339Z,85.80
2018-06-08T05:02:55.417Z,84.80
2018-06-08T05:05:32.055Z,83.60
2018-06-08T05:32:55.099Z,86.90
2018-06-08T05:36:01.874Z,87.20
2018-06-08T05:38:41.682Z,86.90
2018-06-08T05:41:15.167Z,86.20
2018-06-08T05:43:48.444Z,84.90
2018-06-08T05:46:21.961Z,84.50
2018-06-08T05:51:27.766Z,82.60
2018-06-08T05:54:01.162Z,80.30
2018-06-08T05:56:36.395Z,79.60
2018-06-08T05:59:15.007Z,78.00
2018-06-08T06:01:51.588Z,76.80
2018-06-08T06:04:37.217Z,76.50
2018-06-08T06:07:19.651Z,76.30
2018-06-08T06:40:37.554Z,64.30
2018-06-08T08:11:50.233Z,58.50
2018-06-08T08:22:32.596Z,59.80
2018-06-08T08:25:11.016Z,60.10
2018-06-08T08:27:44.612Z,59.10
2018-06-08T08:30:17.968Z,59.80
2018-06-08T08:32:51.218Z,60.50
2018-06-08T08:35:25.821Z,60.00
2018-06-08T08:37:59.191Z,58.80
2018-06-08T08:40:32.657Z,58.80
2018-06-08T08:43:06.083Z,58.70
2018-06-08T08:45:39.535Z,58.90
2018-06-08T08:48:12.927Z,59.20
2018-06-08T08:50:58.018Z,58.80
2018-06-08T08:58:35.862Z,59.80
2018-06-08T09:04:07.382Z,58.90
2018-06-08T09:06:59.837Z,59.20
2018-06-08T09:09:45.246Z,58.80
2018-06-08T09:12:28.716Z,58.40
2018-06-08T09:21:42.455Z,58.10
2018-06-08T09:24:50.563Z,58.10
2018-06-08T09:28:19.479Z,58.00
2018-06-08T09:31:10.758Z,57.00
2018-06-08T09:33:44.570Z,57.60
2018-06-08T09:36:19.108Z,57.20
2018-06-08T09:45:03.655Z,56.50
2018-06-08T09:47:37.032Z,56.80
2018-06-08T09:50:28.108Z,56.90
2018-06-08T09:53:25.938Z,56.40
2018-06-08T09:56:18.287Z,55.20
2018-06-08T09:58:56.257Z,55.40
2018-06-08T10:05:11.076Z,58.10
